Time;durP1;ratioP1;P1;durP2;ratioP2;P2;SDS_P1;SDS_P2;PMS_P1;PMS_P2;Temp;Humidity;BMP_temperature;BMP_pressure;BME280_temperature;BME280_humidity;BME280_pressure;Samples;Min_cycle;Max_cycle;Signal;HPM_P1;HPM_P2
2021/07/29 00:01:32;;;;;;;5.70;3.07;;;;;;;14.30;84.69;96526.72;3557847;40;20843;-74
2021/07/29 00:04:00;;;;;;;6.03;2.50;;;;;;;14.13;85.18;96522.91;3554121;40;20459;-72
2021/07/29 00:06:33;;;;;;;4.20;2.73;;;;;;;14.23;84.47;96525.59;3558697;40;20447;-73
2021/07/29 00:09:02;;;;;;;7.20;3.20;;;;;;;14.17;84.71;96521.69;3555544;39;20466;-72
2021/07/29 00:11:30;;;;;;;3.60;2.63;;;;;;;14.14;85.03;96524.56;3553856;40;21098;-73
2021/07/29 00:14:00;;;;;;;4.50;2.90;;;;;;;14.16;85.14;96521.81;3555827;40;20822;-73
2021/07/29 00:16:32;;;;;;;3.40;2.60;;;;;;;14.14;85.06;96527.19;3554171;40;20475;-73
2021/07/29 00:19:05;;;;;;;12.83;3.03;;;;;;;14.14;85.30;96524.56;3557803;40;20816;-74
2021/07/29 00:21:34;;;;;;;6.33;2.60;;;;;;;14.19;84.47;96516.25;3566762;39;20462;-73
2021/07/29 00:24:03;;;;;;;7.67;2.67;;;;;;;14.22;84.19;96513.38;3576099;39;20849;-74
2021/07/29 00:26:31;;;;;;;7.80;2.83;;;;;;;14.15;84.70;96504.31;3582754;39;20878;-75
2021/07/29 00:29:00;;;;;;;3.50;2.73;;;;;;;14.14;84.93;96508.75;3578150;39;20598;-73
2021/07/29 00:31:33;;;;;;;6.27;3.20;;;;;;;14.09;85.03;96507.47;3576554;39;20667;-71
2021/07/29 00:34:01;;;;;;;5.40;2.73;;;;;;;13.96;85.36;96510.31;3578977;39;20809;-72
2021/07/29 00:36:31;;;;;;;6.07;3.37;;;;;;;13.93;85.61;96514.03;3577620;39;20530;-73
2021/07/29 00:38:59;;;;;;;4.50;3.23;;;;;;;14.00;85.04;96512.56;3576213;39;20464;-72
2021/07/29 00:41:27;;;;;;;6.60;2.90;;;;;;;13.87;85.44;96504.00;3568339;39;20469;-72
2021/07/29 00:44:01;;;;;;;5.60;2.90;;;;;;;13.93;85.56;96506.13;3578423;39;20468;-73
2021/07/29 00:46:31;;;;;;;4.23;2.80;;;;;;;13.73;85.89;96506.97;3578574;39;20546;-73
2021/07/29 00:49:01;;;;;;;5.13;3.03;;;;;;;13.59;86.08;96501.03;3578037;39;20697;-71
2021/07/29 00:51:34;;;;;;;5.77;2.70;;;;;;;13.46;87.08;96503.00;3577979;39;20693;-73
2021/07/29 00:54:04;;;;;;;13.03;3.03;;;;;;;13.53;86.88;96498.91;3578134;39;20557;-72
2021/07/29 00:56:34;;;;;;;6.43;3.00;;;;;;;13.53;87.07;96504.19;3575969;39;20482;-73
2021/07/29 00:59:02;;;;;;;4.33;2.33;;;;;;;13.55;86.44;96494.38;3576390;39;20537;-73
2021/07/29 01:01:30;;;;;;;3.87;2.63;;;;;;;13.58;86.47;96494.13;3576622;39;20456;-73
2021/07/29 01:03:59;;;;;;;5.90;3.53;;;;;;;13.58;86.12;96488.88;3579426;39;20861;-73
2021/07/29 01:06:28;;;;;;;5.93;3.10;;;;;;;13.65;85.94;96491.81;3577738;39;20758;-72
2021/07/29 01:09:00;;;;;;;7.13;3.23;;;;;;;13.48;86.76;96493.19;3576639;39;20460;-74
2021/07/29 01:11:29;;;;;;;13.33;3.63;;;;;;;13.21;87.44;96493.63;3576672;39;20531;-73
2021/07/29 01:13:57;;;;;;;6.80;2.53;;;;;;;13.24;87.54;96493.38;3583250;39;20832;-75
2021/07/29 01:16:25;;;;;;;5.97;2.87;;;;;;;13.22;87.65;96496.13;3561212;39;20477;-73
2021/07/29 01:18:53;;;;;;;4.53;2.30;;;;;;;13.29;87.54;96495.63;3577907;39;20645;-73
2021/07/29 01:21:22;;;;;;;10.30;2.80;;;;;;;13.15;88.09;96494.13;3559300;40;20986;-73
2021/07/29 01:23:51;;;;;;;11.67;3.20;;;;;;;13.21;88.18;96490.97;3559168;39;20459;-73
2021/07/29 01:26:19;;;;;;;3.80;2.37;;;;;;;13.08;88.18;96478.00;3559606;40;20686;-72
2021/07/29 01:28:47;;;;;;;5.50;3.10;;;;;;;13.25;87.78;96493.25;3557123;39;20446;-72
2021/07/29 01:31:14;;;;;;;12.43;3.37;;;;;;;13.22;87.53;96487.41;3558645;40;20859;-73
2021/07/29 01:33:43;;;;;;;10.07;3.40;;;;;;;13.21;87.48;96486.59;3557971;40;20921;-72
2021/07/29 01:36:10;;;;;;;7.10;3.27;;;;;;;13.12;87.94;96476.81;3559427;40;20587;-72
2021/07/29 01:38:40;;;;;;;7.27;2.70;;;;;;;13.12;87.85;96482.06;3559735;40;20778;-72
2021/07/29 01:41:08;;;;;;;8.50;3.00;;;;;;;13.13;88.04;96475.00;3560309;40;20536;-73
2021/07/29 01:43:36;;;;;;;5.97;2.70;;;;;;;13.21;87.84;96480.47;3559446;40;20791;-73
2021/07/29 01:46:04;;;;;;;10.23;3.53;;;;;;;13.20;88.00;96481.44;3557207;40;20778;-73
2021/07/29 01:48:34;;;;;;;4.87;3.00;;;;;;;13.40;87.42;96485.09;3564972;40;21100;-72
2021/07/29 01:51:02;;;;;;;7.73;2.90;;;;;;;13.41;87.38;96486.78;3560939;40;21111;-72
2021/07/29 01:53:30;;;;;;;8.30;2.90;;;;;;;13.45;87.24;96477.69;3559804;40;20543;-71
2021/07/29 01:55:59;;;;;;;6.00;3.27;;;;;;;13.43;86.95;96477.78;3560933;40;20443;-71
2021/07/29 01:58:27;;;;;;;8.43;3.43;;;;;;;13.33;87.67;96478.66;3556992;40;20496;-73
2021/07/29 02:00:55;;;;;;;6.07;2.90;;;;;;;13.24;87.80;96481.06;3559397;40;20533;-71
2021/07/29 02:03:23;;;;;;;4.00;2.93;;;;;;;13.40;86.99;96478.03;3558332;40;20454;-70
2021/07/29 02:05:51;;;;;;;9.70;2.90;;;;;;;13.40;86.99;96482.47;3563104;40;20479;-72
2021/07/29 02:08:19;;;;;;;6.67;3.00;;;;;;;13.41;86.71;96476.25;3558974;40;20933;-71
2021/07/29 02:10:47;;;;;;;6.70;3.43;;;;;;;13.35;86.76;96479.38;3558953;40;20808;-71
2021/07/29 02:13:16;;;;;;;3.73;2.63;;;;;;;13.38;87.03;96487.03;3559420;40;20847;-72
2021/07/29 02:15:44;;;;;;;7.03;2.87;;;;;;;13.37;87.20;96485.38;3559480;40;20846;-71
2021/07/29 02:18:12;;;;;;;7.73;2.90;;;;;;;13.34;87.40;96485.59;3561086;40;20750;-74
2021/07/29 02:20:40;;;;;;;6.30;3.10;;;;;;;13.47;87.49;96483.66;3563241;40;20464;-72
2021/07/29 02:23:12;;;;;;;6.60;3.47;;;;;;;13.51;87.81;96482.44;3567768;40;20961;-71
2021/07/29 02:25:43;;;;;;;7.40;2.93;;;;;;;13.52;87.48;96489.34;3585656;39;20847;-71
2021/07/29 02:28:11;;;;;;;4.30;2.80;;;;;;;13.41;87.57;96489.41;3579070;39;20560;-72
2021/07/29 02:30:40;;;;;;;7.17;3.00;;;;;;;13.36;88.11;96481.06;3579411;39;21050;-72
2021/07/29 02:33:08;;;;;;;18.60;3.73;;;;;;;13.49;87.90;96478.28;3577781;39;20963;-70
2021/07/29 02:35:36;;;;;;;8.30;3.40;;;;;;;13.37;88.17;96486.19;3576387;39;20745;-72
2021/07/29 02:38:04;;;;;;;12.30;3.10;;;;;;;13.37;88.66;96485.38;3578589;39;20905;-71
2021/07/29 02:40:32;;;;;;;5.13;2.90;;;;;;;13.31;88.88;96483.22;3581327;39;20534;-70
2021/07/29 02:42:59;;;;;;;5.30;3.40;;;;;;;13.29;89.11;96483.34;3581965;39;21290;-70
2021/07/29 02:45:27;;;;;;;5.47;3.30;;;;;;;13.41;89.11;96481.53;3577364;39;20834;-71
2021/07/29 02:47:57;;;;;;;6.53;3.63;;;;;;;13.41;88.26;96471.00;3576822;39;20827;-72
2021/07/29 02:50:24;;;;;;;7.23;2.50;;;;;;;13.41;88.44;96492.88;3556932;40;21117;-74
2021/07/29 02:52:52;;;;;;;5.53;2.80;;;;;;;13.30;88.78;96495.53;3561024;40;20838;-73
2021/07/29 02:55:21;;;;;;;6.10;3.13;;;;;;;13.27;88.78;96493.13;3579431;39;20502;-71
2021/07/29 02:57:49;;;;;;;6.83;3.63;;;;;;;13.20;88.64;96490.16;3570395;39;20437;-70
2021/07/29 03:00:18;;;;;;;6.70;3.20;;;;;;;13.31;88.68;96496.38;3574091;40;20880;-71
2021/07/29 03:02:46;;;;;;;6.80;3.53;;;;;;;13.18;88.69;96489.44;3578742;39;20526;-73
2021/07/29 03:05:16;;;;;;;8.03;3.77;;;;;;;13.11;88.65;96490.88;3576437;39;20429;-73
2021/07/29 03:07:43;;;;;;;6.00;2.70;;;;;;;12.90;89.46;96492.63;3578489;39;20823;-73
2021/07/29 03:10:13;;;;;;;4.63;3.10;;;;;;;13.00;89.52;96504.09;3582363;39;20433;-73
2021/07/29 03:12:41;;;;;;;4.60;3.40;;;;;;;13.14;89.08;96495.09;3576185;39;20910;-71
2021/07/29 03:15:10;;;;;;;6.00;3.00;;;;;;;13.07;88.70;96497.34;3579907;39;20441;-73
2021/07/29 03:17:38;;;;;;;5.33;3.60;;;;;;;13.14;88.77;96489.84;3578430;39;20456;-71
2021/07/29 03:20:07;;;;;;;7.87;3.77;;;;;;;13.08;89.08;96488.53;3577603;40;20430;-72
2021/07/29 03:22:36;;;;;;;5.83;3.30;;;;;;;13.16;89.12;96485.28;3565323;40;20772;-75
2021/07/29 03:25:05;;;;;;;7.13;3.07;;;;;;;13.03;89.57;96488.03;3565007;40;20538;-71
2021/07/29 03:27:33;;;;;;;7.50;3.50;;;;;;;13.05;89.18;96494.00;3565889;39;20454;-71
2021/07/29 03:30:01;;;;;;;5.07;3.13;;;;;;;13.06;88.96;96488.66;3565575;40;20931;-71
2021/07/29 03:32:29;;;;;;;9.80;3.70;;;;;;;12.99;89.18;96497.16;3560404;39;21012;-73
2021/07/29 03:34:57;;;;;;;10.47;3.80;;;;;;;12.97;89.81;96494.63;3566026;40;20459;-72
2021/07/29 03:37:25;;;;;;;5.27;3.30;;;;;;;13.04;89.73;96492.38;3562033;39;20799;-72
2021/07/29 03:39:54;;;;;;;10.27;3.50;;;;;;;13.10;89.12;96493.66;3563614;40;20438;-73
2021/07/29 03:42:25;;;;;;;6.20;3.53;;;;;;;13.02;89.54;96475.88;3565211;39;20437;-71
2021/07/29 03:44:53;;;;;;;5.50;2.80;;;;;;;12.99;89.59;96491.88;3563346;40;20464;-71
2021/07/29 03:47:21;;;;;;;5.50;3.33;;;;;;;13.07;89.34;96500.00;3570156;39;20461;-72
2021/07/29 03:49:49;;;;;;;5.50;3.60;;;;;;;12.97;89.67;96509.56;3565098;40;20443;-71
2021/07/29 03:52:17;;;;;;;7.47;3.60;;;;;;;12.88;90.00;96505.91;3563281;39;20958;-72
2021/07/29 03:54:45;;;;;;;6.87;3.63;;;;;;;12.99;89.58;96507.66;3563494;40;20688;-71
2021/07/29 03:57:14;;;;;;;6.37;3.50;;;;;;;12.92;89.46;96509.13;3560432;40;20763;-71
2021/07/29 03:59:42;;;;;;;6.40;3.43;;;;;;;12.84;89.88;96509.72;3559573;40;20483;-73
2021/07/29 04:02:10;;;;;;;5.70;3.60;;;;;;;12.89;89.77;96514.59;3564048;40;20461;-72
2021/07/29 04:04:39;;;;;;;7.87;3.70;;;;;;;12.90;89.28;96511.88;3563484;40;20457;-72
2021/07/29 04:07:08;;;;;;;8.50;4.00;;;;;;;13.01;89.58;96517.09;3565018;40;20827;-71
2021/07/29 04:09:37;;;;;;;8.60;3.50;;;;;;;13.15;89.31;96508.13;3564283;39;20846;-72
2021/07/29 04:12:06;;;;;;;7.33;3.40;;;;;;;13.30;88.17;96505.22;3565064;40;20449;-72
2021/07/29 04:14:35;;;;;;;9.00;3.50;;;;;;;13.29;88.04;96511.41;3562400;40;20530;-71
2021/07/29 04:17:03;;;;;;;6.27;4.00;;;;;;;13.32;88.32;96508.56;3562579;40;20458;-72
2021/07/29 04:19:33;;;;;;;6.03;3.07;;;;;;;13.32;87.78;96508.56;3562446;39;20465;-72
2021/07/29 04:22:01;;;;;;;7.70;3.40;;;;;;;13.36;87.46;96515.25;3573444;39;20833;-71
2021/07/29 04:24:29;;;;;;;13.10;3.50;;;;;;;13.34;87.34;96507.47;3577132;39;20546;-72
2021/07/29 04:26:57;;;;;;;7.90;3.77;;;;;;;13.34;87.23;96510.09;3563760;40;21115;-70
2021/07/29 04:29:25;;;;;;;8.47;3.80;;;;;;;13.41;87.39;96515.72;3577244;39;20860;-71
2021/07/29 04:31:55;;;;;;;3.90;3.20;;;;;;;13.40;87.28;96514.84;3577164;39;20892;-72
2021/07/29 04:34:23;;;;;;;6.00;3.33;;;;;;;13.40;87.49;96517.50;3567409;39;20717;-71
2021/07/29 04:36:52;;;;;;;5.10;3.03;;;;;;;13.47;87.05;96514.38;3577671;39;20670;-70
2021/07/29 04:39:20;;;;;;;6.60;3.57;;;;;;;13.52;87.37;96515.66;3566295;40;21216;-72
2021/07/29 04:41:48;;;;;;;4.90;2.50;;;;;;;13.56;87.42;96517.06;3579212;39;20976;-69
2021/07/29 04:44:16;;;;;;;5.30;3.10;;;;;;;13.62;87.43;96521.00;3577605;39;20704;-71
2021/07/29 04:46:44;;;;;;;4.67;3.10;;;;;;;13.73;86.99;96517.50;3577564;39;20787;-73
2021/07/29 04:49:18;;;;;;;3.60;2.80;;;;;;;13.85;86.03;96516.47;3578030;39;20909;-72
2021/07/29 04:51:47;;;;;;;5.70;3.40;;;;;;;13.93;86.15;96516.66;3579735;39;20495;-71
2021/07/29 04:54:15;;;;;;;7.50;3.40;;;;;;;13.91;85.65;96518.59;3577786;39;20576;-72
2021/07/29 04:56:43;;;;;;;5.87;3.03;;;;;;;13.94;85.82;96526.25;3575922;40;20461;-73
2021/07/29 04:59:11;;;;;;;5.93;2.87;;;;;;;14.00;85.65;96530.97;3577348;39;20556;-71
2021/07/29 05:01:39;;;;;;;8.17;3.00;;;;;;;14.12;85.06;96526.50;3576476;39;20557;-72
2021/07/29 05:04:07;;;;;;;10.10;3.80;;;;;;;14.08;85.17;96530.34;3578347;39;20851;-71
2021/07/29 05:06:37;;;;;;;5.63;3.10;;;;;;;14.17;84.89;96524.31;3568615;40;20857;-71
2021/07/29 05:09:05;;;;;;;13.20;3.80;;;;;;;14.34;84.10;96529.94;3578647;39;20830;-71
2021/07/29 05:11:33;;;;;;;6.63;3.47;;;;;;;14.36;84.30;96528.84;3578545;39;20545;-72
2021/07/29 05:14:01;;;;;;;6.33;3.13;;;;;;;14.34;83.93;96528.13;3574717;39;20721;-70
2021/07/29 05:16:29;;;;;;;10.80;3.73;;;;;;;14.43;84.41;96530.00;3579690;39;20464;-73
2021/07/29 05:18:57;;;;;;;4.97;3.27;;;;;;;14.51;84.08;96524.06;3577429;39;20891;-72
2021/07/29 05:21:25;;;;;;;4.23;3.17;;;;;;;14.61;82.83;96519.69;3577969;39;20465;-71
2021/07/29 05:23:54;;;;;;;7.00;3.67;;;;;;;14.66;82.66;96503.47;3577631;39;20855;-72
2021/07/29 05:26:22;;;;;;;8.43;3.47;;;;;;;14.86;82.35;96516.72;3565102;39;20481;-72
2021/07/29 05:28:50;;;;;;;10.40;4.03;;;;;;;14.87;82.28;96519.22;3576622;39;20778;-74
2021/07/29 05:31:18;;;;;;;4.97;3.50;;;;;;;15.05;81.18;96523.88;3580663;39;20452;-71
2021/07/29 05:33:46;;;;;;;6.37;3.40;;;;;;;14.97;81.78;96524.53;3575206;39;20537;-73
2021/07/29 05:36:14;;;;;;;9.43;3.63;;;;;;;15.00;81.55;96519.00;3579204;39;20821;-70
2021/07/29 05:38:42;;;;;;;9.10;3.80;;;;;;;15.10;81.56;96529.59;3580228;39;20474;-71
2021/07/29 05:41:11;;;;;;;4.70;3.60;;;;;;;15.26;80.82;96527.25;3581335;39;20891;-71
2021/07/29 05:43:40;;;;;;;8.57;3.50;;;;;;;15.42;79.87;96519.63;3578342;39;20467;-72
2021/07/29 05:46:09;;;;;;;3.50;2.37;;;;;;;15.28;80.20;96524.47;3581092;39;20919;-73
2021/07/29 05:48:38;;;;;;;5.87;3.37;;;;;;;15.38;79.79;96517.41;3582158;39;20865;-72
2021/07/29 05:51:06;;;;;;;6.50;3.50;;;;;;;15.36;81.00;96519.34;3580249;39;20426;-71
2021/07/29 05:53:34;;;;;;;4.53;3.10;;;;;;;15.31;81.78;96521.53;3579598;39;20445;-72
2021/07/29 05:56:02;;;;;;;4.40;3.43;;;;;;;15.38;82.17;96518.22;3568755;39;20950;-72
2021/07/29 05:58:32;;;;;;;7.30;3.40;;;;;;;15.51;80.49;96525.91;3576472;39;20833;-73
2021/07/29 06:01:07;;;;;;;8.53;2.80;;;;;;;15.70;79.89;96522.44;3580036;39;20848;-72
2021/07/29 06:03:35;;;;;;;7.50;3.30;;;;;;;15.77;80.28;96523.56;3575784;39;20481;-71
2021/07/29 06:06:03;;;;;;;3.40;2.57;;;;;;;15.80;80.03;96528.56;3578783;39;20810;-72
2021/07/29 06:08:31;;;;;;;5.57;3.10;;;;;;;15.85;81.10;96527.31;3578638;39;20546;-70
2021/07/29 06:11:03;;;;;;;5.23;3.40;;;;;;;16.09;81.12;96532.16;3578577;40;21183;-70
2021/07/29 06:13:33;;;;;;;14.67;3.30;;;;;;;16.36;76.69;96532.22;3578935;39;21096;-74
2021/07/29 06:16:02;;;;;;;5.13;2.40;;;;;;;15.94;78.84;96529.13;3576621;39;20453;-70
2021/07/29 06:18:33;;;;;;;6.43;3.00;;;;;;;16.17;78.78;96537.56;3578246;39;20465;-72
2021/07/29 06:21:05;;;;;;;5.23;2.60;;;;;;;17.00;75.59;96533.28;3580342;39;20476;-72
2021/07/29 06:23:33;;;;;;;7.00;3.13;;;;;;;17.33;75.05;96530.19;3580718;39;20529;-71
2021/07/29 06:26:01;;;;;;;3.73;2.67;;;;;;;17.64;72.91;96535.09;3579981;39;20801;-71
2021/07/29 06:28:32;;;;;;;5.43;2.53;;;;;;;17.10;74.52;96538.50;3568354;40;20764;-73
2021/07/29 06:31:01;;;;;;;5.63;3.00;;;;;;;17.31;74.10;96527.69;3577524;39;20452;-72
2021/07/29 06:33:29;;;;;;;3.80;3.20;;;;;;;17.59;73.70;96531.09;3582513;39;20477;-72
2021/07/29 06:36:03;;;;;;;4.57;3.23;;;;;;;17.81;71.80;96536.91;3581102;39;20510;-73
2021/07/29 06:38:32;;;;;;;5.17;2.40;;;;;;;17.91;72.62;96536.88;3571077;40;20939;-72
2021/07/29 06:41:00;;;;;;;9.70;3.00;;;;;;;18.15;72.58;96528.28;3578185;39;20545;-72
2021/07/29 06:43:28;;;;;;;4.20;2.80;;;;;;;17.92;71.02;96527.94;3576307;39;20725;-73
2021/07/29 06:45:56;;;;;;;7.33;2.90;;;;;;;18.17;71.00;96539.59;3582149;39;20491;-74
2021/07/29 06:48:25;;;;;;;5.93;2.90;;;;;;;18.20;70.13;96531.31;3571169;39;20828;-72
2021/07/29 06:50:53;;;;;;;5.33;2.77;;;;;;;18.22;70.51;96531.97;3582788;39;20808;-71
2021/07/29 06:53:21;;;;;;;7.20;2.40;;;;;;;17.75;72.35;96535.72;3569008;40;20491;-73
2021/07/29 06:55:49;;;;;;;2.30;2.10;;;;;;;17.44;71.79;96548.47;3579011;39;20751;-71
2021/07/29 06:58:17;;;;;;;4.57;2.63;;;;;;;17.48;72.14;96557.78;3583142;39;20459;-71
2021/07/29 07:00:45;;;;;;;4.67;2.40;;;;;;;17.37;73.13;96550.06;3580428;39;21155;-71
2021/07/29 07:03:13;;;;;;;7.93;3.30;;;;;;;17.32;73.17;96547.03;3580867;39;20557;-71
2021/07/29 07:05:46;;;;;;;4.60;3.07;;;;;;;17.18;73.54;96554.47;3577381;39;20440;-73
2021/07/29 07:08:14;;;;;;;12.10;2.90;;;;;;;17.13;74.03;96559.41;3579049;39;20458;-72
2021/07/29 07:10:43;;;;;;;4.30;2.23;;;;;;;17.07;74.14;96565.28;3579645;39;20740;-72
2021/07/29 07:13:11;;;;;;;5.10;2.67;;;;;;;17.20;73.18;96563.09;3582361;39;20545;-71
2021/07/29 07:15:39;;;;;;;4.60;2.80;;;;;;;17.41;73.50;96556.72;3583420;39;20472;-73
2021/07/29 07:18:07;;;;;;;8.13;3.90;;;;;;;17.47;73.97;96564.06;3578645;39;20537;-73
2021/07/29 07:20:34;;;;;;;4.87;2.40;;;;;;;17.52;72.45;96561.81;3578222;39;20457;-73
2021/07/29 07:23:04;;;;;;;5.00;3.07;;;;;;;17.67;71.75;96551.53;3567802;39;20960;-72
2021/07/29 07:25:35;;;;;;;3.10;2.50;;;;;;;17.70;70.25;96564.47;3579643;39;20829;-74
2021/07/29 07:28:04;;;;;;;8.97;3.17;;;;;;;17.74;71.24;96559.72;3578786;39;20844;-73
2021/07/29 07:30:32;;;;;;;6.83;2.83;;;;;;;18.01;70.63;96555.34;3578436;39;20492;-73
2021/07/29 07:33:01;;;;;;;6.03;3.23;;;;;;;18.50;68.96;96558.34;3567855;39;20708;-72
2021/07/29 07:35:28;;;;;;;4.57;2.57;;;;;;;18.56;68.41;96563.00;3578094;39;20578;-71
2021/07/29 07:37:57;;;;;;;9.40;2.90;;;;;;;18.37;68.26;96553.47;3578519;39;20465;-71
2021/07/29 07:40:26;;;;;;;4.10;3.00;;;;;;;18.20;68.79;96559.63;3578023;39;20465;-72
2021/07/29 07:42:55;;;;;;;6.83;2.50;;;;;;;18.20;70.48;96557.81;3567265;40;20547;-74
2021/07/29 07:45:28;;;;;;;10.53;3.30;;;;;;;18.17;68.34;96555.47;3579895;39;20534;-72
2021/07/29 07:47:56;;;;;;;5.77;2.63;;;;;;;18.22;69.05;96562.97;3581194;39;20526;-72
2021/07/29 07:50:24;;;;;;;4.80;2.70;;;;;;;18.01;69.83;96564.09;3581481;39;20561;-75
2021/07/29 07:52:52;;;;;;;4.83;3.00;;;;;;;17.97;70.27;96563.59;3579379;39;20468;-72
2021/07/29 07:55:20;;;;;;;3.90;2.40;;;;;;;17.93;68.22;96562.22;3577049;40;20904;-73
2021/07/29 07:57:49;;;;;;;3.90;2.87;;;;;;;18.10;68.87;96570.31;3578196;39;20538;-73
2021/07/29 08:00:17;;;;;;;4.37;2.77;;;;;;;18.28;68.37;96563.16;3577525;39;20452;-72
2021/07/29 08:02:45;;;;;;;5.23;3.10;;;;;;;18.66;68.16;96558.47;3569205;40;21054;-72
2021/07/29 08:05:14;;;;;;;12.23;2.50;;;;;;;18.50;66.47;96553.03;3579526;39;20477;-72
2021/07/29 08:07:42;;;;;;;4.43;3.03;;;;;;;18.84;66.04;96557.59;3575194;39;20457;-72
2021/07/29 08:10:11;;;;;;;4.37;2.60;;;;;;;18.78;63.92;96551.06;3578235;39;21128;-73
2021/07/29 08:12:39;;;;;;;2.37;1.97;;;;;;;18.90;63.48;96543.69;3580850;39;20578;-74
2021/07/29 08:15:10;;;;;;;5.67;2.97;;;;;;;18.81;62.42;96544.63;3579126;39;20704;-72
2021/07/29 08:17:38;;;;;;;5.00;3.07;;;;;;;18.70;62.25;96543.91;3577376;39;22098;-73
2021/07/29 08:20:10;;;;;;;3.87;2.03;;;;;;;19.26;60.67;96546.16;3578876;40;20899;-73
2021/07/29 08:22:38;;;;;;;6.60;3.60;;;;;;;19.24;60.67;96542.81;3580169;39;20817;-73
2021/07/29 08:25:06;;;;;;;9.63;4.30;;;;;;;19.29;59.61;96543.19;3569801;40;20575;-72
2021/07/29 08:27:35;;;;;;;6.43;3.00;;;;;;;19.09;60.87;96540.78;3576743;39;20730;-74
2021/07/29 08:30:04;;;;;;;5.43;3.27;;;;;;;18.87;58.65;96555.44;3581071;39;20475;-72
2021/07/29 08:32:36;;;;;;;4.53;2.70;;;;;;;18.65;60.13;96551.47;3577785;39;20442;-74
2021/07/29 08:35:04;;;;;;;5.90;2.70;;;;;;;18.78;60.46;96546.59;3582192;39;20434;-73
2021/07/29 08:37:32;;;;;;;6.77;3.90;;;;;;;18.71;59.34;96545.53;3578342;39;20903;-73
2021/07/29 08:40:00;;;;;;;5.77;2.90;;;;;;;18.90;59.75;96552.47;3581041;39;20456;-74
2021/07/29 08:42:28;;;;;;;3.53;2.20;;;;;;;18.97;58.81;96547.34;3577715;39;20684;-72
2021/07/29 08:44:57;;;;;;;4.10;2.40;;;;;;;19.03;59.37;96557.31;3581292;39;20455;-71
2021/07/29 08:47:25;;;;;;;7.40;2.60;;;;;;;19.56;58.43;96550.88;3577166;39;20464;-72
2021/07/29 08:50:04;;;;;;;7.90;3.00;;;;;;;19.80;56.70;96551.94;3577646;39;20772;-72
2021/07/29 08:52:37;;;;;;;3.77;2.23;;;;;;;19.75;55.89;96531.19;3573734;40;20489;-73
2021/07/29 08:55:07;;;;;;;6.70;2.80;;;;;;;19.55;56.98;96559.84;3576815;39;20691;-72
2021/07/29 08:57:37;;;;;;;5.80;3.03;;;;;;;19.38;56.98;96558.13;3569573;39;20493;-72
2021/07/29 09:00:10;;;;;;;7.43;3.13;;;;;;;19.10;57.22;96557.53;3579482;39;21081;-73
2021/07/29 09:02:38;;;;;;;15.83;8.90;;;;;;;19.02;57.12;96561.00;3576750;39;20918;-73
2021/07/29 09:05:21;;;;;;;4.57;2.83;;;;;;;19.15;58.07;96557.88;3581157;39;20670;-73
2021/07/29 09:08:03;;;;;;;4.27;2.73;;;;;;;19.19;56.94;96553.94;3580055;39;20712;-73
2021/07/29 09:10:32;;;;;;;6.30;2.90;;;;;;;19.39;55.11;96565.13;3581006;39;20452;-74
2021/07/29 09:13:08;;;;;;;13.60;3.20;;;;;;;19.41;56.35;96559.66;3579323;39;20485;-70
2021/07/29 09:15:36;;;;;;;5.80;3.37;;;;;;;19.59;54.84;96557.69;3570037;40;20472;-70
2021/07/29 09:18:05;;;;;;;6.17;3.20;;;;;;;19.68;55.20;96543.44;3581141;39;20928;-74
2021/07/29 09:20:35;;;;;;;4.00;2.83;;;;;;;19.86;53.82;96559.25;3575374;39;20841;-70
2021/07/29 09:23:14;;;;;;;10.40;2.60;;;;;;;20.36;53.79;96560.09;3577195;39;20484;-72
2021/07/29 09:25:43;;;;;;;6.90;3.13;;;;;;;20.22;54.32;96553.63;3580344;39;20491;-71
2021/07/29 09:28:12;;;;;;;9.77;3.23;;;;;;;19.97;54.06;96558.09;3580251;39;20691;-73
2021/07/29 09:30:40;;;;;;;5.87;2.40;;;;;;;19.72;54.11;96560.75;3580453;39;20527;-70
2021/07/29 09:33:12;;;;;;;5.07;2.50;;;;;;;19.62;54.06;96556.53;3577946;39;20505;-71
2021/07/29 09:35:44;;;;;;;3.57;2.70;;;;;;;19.81;54.87;96555.44;3579738;39;20799;-71
2021/07/29 09:38:20;;;;;;;3.50;3.07;;;;;;;20.92;51.56;96558.34;3577850;39;20762;-73
2021/07/29 09:40:54;;;;;;;6.67;3.03;;;;;;;20.70;50.07;96559.09;3578342;39;20777;-71
2021/07/29 09:43:23;;;;;;;6.07;3.00;;;;;;;20.39;51.49;96546.47;3577387;39;20577;-73
2021/07/29 09:45:52;;;;;;;4.90;2.60;;;;;;;21.08;52.74;96552.13;3577177;39;20715;-72
2021/07/29 09:48:22;;;;;;;5.03;3.50;;;;;;;21.13;51.24;96555.13;3580539;39;20886;-73
2021/07/29 09:50:52;;;;;;;3.77;2.63;;;;;;;22.36;48.99;96542.88;3579054;39;20429;-73
2021/07/29 09:53:23;;;;;;;13.80;7.63;;;;;;;22.23;49.23;96537.31;3580481;39;20484;-71
2021/07/29 09:55:50;;;;;;;8.20;5.07;;;;;;;21.26;48.87;96548.41;3581204;39;20849;-72
2021/07/29 09:58:19;;;;;;;4.57;3.10;;;;;;;21.21;49.17;96535.63;3579575;39;20481;-72
2021/07/29 10:00:46;;;;;;;6.00;2.93;;;;;;;21.40;46.74;96539.66;3579608;39;20456;-73
2021/07/29 10:03:16;;;;;;;9.70;3.30;;;;;;;21.28;48.17;96536.56;3580182;39;20872;-75
2021/07/29 10:05:50;;;;;;;6.27;2.50;;;;;;;21.40;48.00;96529.00;3562196;40;20453;-73
2021/07/29 10:08:29;;;;;;;9.37;3.20;;;;;;;22.10;46.09;96524.56;3581080;39;20461;-75
2021/07/29 10:10:59;;;;;;;6.80;3.73;;;;;;;22.25;45.21;96520.16;3579284;39;20709;-71
2021/07/29 10:13:35;;;;;;;5.97;3.57;;;;;;;21.54;47.61;96516.81;3579202;39;20682;-73
2021/07/29 10:16:03;;;;;;;4.47;3.60;;;;;;;21.10;48.54;96510.19;3582027;39;20549;-73
2021/07/29 10:19:06;;;;;;;5.03;3.60;;;;;;;20.79;49.30;96515.47;3580245;39;20725;-71
2021/07/29 10:21:36;;;;;;;4.93;3.37;;;;;;;20.85;49.88;96521.94;3578350;39;20456;-71
2021/07/29 10:24:06;;;;;;;6.90;4.13;;;;;;;21.05;49.88;96525.88;3578212;39;20728;-72
2021/07/29 10:26:36;;;;;;;5.00;3.60;;;;;;;21.95;48.35;96521.03;3581659;40;20461;-71
2021/07/29 10:29:25;;;;;;;9.27;3.47;;;;;;;21.66;49.35;96518.09;3570362;39;20463;-70
2021/07/29 10:31:55;;;;;;;4.27;3.27;;;;;;;22.30;46.30;96515.09;3586700;39;20448;-69
2021/07/29 10:34:25;;;;;;;4.57;3.10;;;;;;;22.78;47.54;96517.44;3580638;39;20574;-71
2021/07/29 10:36:54;;;;;;;10.47;3.17;;;;;;;23.77;45.85;96506.31;3580997;39;20476;-71
2021/07/29 10:39:25;;;;;;;10.43;4.00;;;;;;;23.63;42.23;96515.22;3584311;39;20463;-72
2021/07/29 10:41:57;;;;;;;4.27;3.00;;;;;;;23.25;43.53;96512.75;3577000;40;20487;-70
2021/07/29 10:44:49;;;;;;;6.90;3.87;;;;;;;22.33;43.73;96513.91;3577515;39;20943;-72
2021/07/29 10:47:41;;;;;;;9.00;3.33;;;;;;;22.24;43.64;96497.13;3579302;39;20470;-71
2021/07/29 10:50:11;;;;;;;6.80;3.37;;;;;;;22.85;43.29;96504.19;3577769;39;20686;-73
2021/07/29 10:52:39;;;;;;;5.07;3.17;;;;;;;22.77;42.98;96505.09;3578046;39;20457;-71
2021/07/29 10:55:11;;;;;;;6.57;3.53;;;;;;;23.34;41.62;96500.91;3578059;39;20792;-72
2021/07/29 10:57:40;;;;;;;4.50;3.00;;;;;;;24.12;44.23;96508.31;3578985;39;20564;-70
2021/07/29 11:00:09;;;;;;;3.80;2.37;;;;;;;24.18;44.59;96507.53;3577925;39;20518;-71
2021/07/29 11:02:46;;;;;;;5.53;2.90;;;;;;;23.69;44.07;96495.75;3575901;39;20863;-72
2021/07/29 11:05:20;;;;;;;3.93;3.10;;;;;;;24.08;42.78;96494.50;3577267;39;20453;-73
2021/07/29 11:07:48;;;;;;;5.33;3.30;;;;;;;24.33;42.23;96499.44;3577172;39;20846;-73
2021/07/29 11:10:22;;;;;;;5.50;3.00;;;;;;;24.03;42.61;96499.56;3576945;39;20920;-72
2021/07/29 11:12:55;;;;;;;4.87;3.33;;;;;;;22.92;44.01;96498.94;3577336;39;20472;-73
2021/07/29 11:15:23;;;;;;;4.73;3.10;;;;;;;23.10;44.58;96481.53;3576623;39;20437;-73
2021/07/29 11:17:52;;;;;;;4.40;3.60;;;;;;;23.68;42.41;96492.25;3578360;39;20803;-72
2021/07/29 11:20:28;;;;;;;4.07;3.10;;;;;;;24.26;41.62;96489.47;3579038;39;20533;-75
2021/07/29 11:22:56;;;;;;;4.70;3.03;;;;;;;24.98;40.64;96482.13;3567670;40;20921;-71
2021/07/29 11:25:25;;;;;;;6.73;2.70;;;;;;;24.02;41.15;96497.94;3577463;39;20654;-72
2021/07/29 11:27:53;;;;;;;5.80;3.67;;;;;;;24.51;40.51;96497.09;3576705;39;20460;-73
2021/07/29 11:30:21;;;;;;;5.37;3.10;;;;;;;24.57;40.93;96482.94;3568254;40;20940;-74
2021/07/29 11:32:49;;;;;;;4.10;3.10;;;;;;;24.33;40.43;96486.88;3578232;39;20554;-73
2021/07/29 11:35:20;;;;;;;11.50;4.00;;;;;;;24.12;42.12;96485.06;3578921;39;20541;-72
2021/07/29 11:37:49;;;;;;;5.60;2.87;;;;;;;24.34;41.23;96482.34;3569120;39;20470;-72
2021/07/29 11:40:19;;;;;;;5.43;2.87;;;;;;;25.25;39.61;96476.94;3578238;39;20445;-73
2021/07/29 11:42:48;;;;;;;4.23;3.53;;;;;;;25.14;40.12;96482.81;3574218;39;20526;-74